Time;durP1;ratioP1;P1;durP2;ratioP2;P2;SDS_P1;SDS_P2;PMS_P1;PMS_P2;Temp;Humidity;BMP_temperature;BMP_pressure;BME280_temperature;BME280_humidity;BME280_pressure;Samples;Min_cycle;Max_cycle;Signal;HPM_P1;HPM_P2
2023/07/11 00:01:47;;;;;;;;;;;;;;;20.26;61.54;101574.53;5017029;28;1323;-80
2023/07/11 00:04:12;;;;;;;;;;;;;;;20.23;61.71;101570.41;5018325;28;1352;-80
2023/07/11 00:06:38;;;;;;;;;;;;;;;20.21;61.65;101575.06;5026401;28;1902;-80
2023/07/11 00:09:03;;;;;;;;;;;;;;;20.17;61.88;101571.91;5017716;28;1446;-80
2023/07/11 00:11:28;;;;;;;;;;;;;;;20.04;62.07;101573.47;5032715;28;1299;-80
2023/07/11 00:13:55;;;;;;;;;;;;;;;19.95;62.47;101577.09;5023343;28;1410;-79
2023/07/11 00:16:21;;;;;;;;;;;;;;;19.87;62.73;101562.13;5012424;28;1224;-80
2023/07/11 00:18:46;;;;;;;;;;;;;;;19.78;63.34;101568.41;5017113;28;1674;-80
2023/07/11 00:21:11;;;;;;;;;;;;;;;19.69;63.53;101566.78;5018290;28;1254;-80
2023/07/11 00:23:36;;;;;;;;;;;;;;;19.63;63.99;101563.81;5019873;28;1003;-80
2023/07/11 00:26:02;;;;;;;;;;;;;;;19.60;64.06;101553.63;5020043;28;1965;-80
2023/07/11 00:28:28;;;;;;;;;;;;;;;19.62;64.31;101549.03;5022411;28;1248;-80
2023/07/11 00:30:53;;;;;;;;;;;;;;;19.66;64.28;101556.56;5018261;28;1343;-80
2023/07/11 00:33:19;;;;;;;;;;;;;;;19.67;64.48;101552.94;5021637;28;1193;-80
2023/07/11 00:35:45;;;;;;;;;;;;;;;19.62;64.72;101556.94;5019405;28;1286;-80
2023/07/11 00:38:12;;;;;;;;;;;;;;;19.57;65.37;101553.94;5022399;28;1268;-80
2023/07/11 00:40:45;;;;;;;;;;;;;;;19.50;65.39;101552.97;5022308;28;1570;-81
2023/07/11 00:43:11;;;;;;;;;;;;;;;19.43;65.80;101551.97;5037745;28;1491;-80
2023/07/11 00:45:55;;;;;;;;;;;;;;;19.40;65.65;101547.03;5022642;28;1886;-80
2023/07/11 00:48:22;;;;;;;;;;;;;;;19.39;65.54;101563.00;5022462;28;1090;-80
2023/07/11 00:50:47;;;;;;;;;;;;;;;19.35;65.56;101559.88;5024442;28;1030;-80
2023/07/11 00:53:13;;;;;;;;;;;;;;;19.31;65.79;101555.91;5021998;28;1403;-81
2023/07/11 00:55:39;;;;;;;;;;;;;;;19.26;65.86;101556.41;5022261;28;1160;-80
2023/07/11 00:58:07;;;;;;;;;;;;;;;19.23;65.99;101555.94;5024765;28;1183;-81
2023/07/11 01:00:33;;;;;;;;;;;;;;;19.15;66.20;101558.53;5025580;28;1502;-81
2023/07/11 01:02:58;;;;;;;;;;;;;;;19.13;66.49;101561.34;5022166;28;1221;-81
2023/07/11 01:05:23;;;;;;;;;;;;;;;19.08;66.85;101564.44;5025909;28;1885;-80
2023/07/11 01:07:49;;;;;;;;;;;;;;;19.05;66.82;101554.28;5023122;28;1487;-80
2023/07/11 01:10:14;;;;;;;;;;;;;;;19.02;67.04;101551.94;5024245;28;1268;-80
2023/07/11 01:12:43;;;;;;;;;;;;;;;18.98;67.22;101553.28;5024980;28;1611;-80
2023/07/11 01:15:09;;;;;;;;;;;;;;;18.97;67.31;101556.88;5024175;28;1001;-81
2023/07/11 01:17:34;;;;;;;;;;;;;;;18.95;67.75;101558.03;5016437;28;1148;-81
2023/07/11 01:20:01;;;;;;;;;;;;;;;18.92;67.93;101558.34;5016167;28;1080;-81
2023/07/11 01:22:27;;;;;;;;;;;;;;;18.91;67.99;101552.25;5040035;28;1123;-81
2023/07/11 01:24:52;;;;;;;;;;;;;;;18.91;68.49;101557.53;5038325;28;1372;-81
2023/07/11 01:27:19;;;;;;;;;;;;;;;18.90;69.00;101545.38;5020318;28;1914;-81
2023/07/11 01:29:45;;;;;;;;;;;;;;;18.83;69.24;101542.56;5015465;28;1217;-81
2023/07/11 01:32:10;;;;;;;;;;;;;;;18.80;69.39;101539.44;5019585;28;1006;-81
2023/07/11 01:34:36;;;;;;;;;;;;;;;18.85;69.70;101542.41;5020025;28;1078;-81
2023/07/11 01:37:01;;;;;;;;;;;;;;;18.84;69.84;101536.31;5022455;28;1022;-82
2023/07/11 01:39:26;;;;;;;;;;;;;;;18.85;70.16;101526.63;5026411;28;1057;-81
2023/07/11 01:41:51;;;;;;;;;;;;;;;18.90;69.86;101529.59;5023708;28;1318;-81
2023/07/11 01:44:17;;;;;;;;;;;;;;;18.94;69.55;101525.66;5028287;28;1198;-81
2023/07/11 01:46:42;;;;;;;;;;;;;;;18.89;69.58;101521.88;5023988;28;1899;-81
2023/07/11 01:49:07;;;;;;;;;;;;;;;18.85;69.88;101521.38;5027625;28;1253;-81
2023/07/11 01:51:32;;;;;;;;;;;;;;;18.88;69.88;101509.72;5028376;28;1515;-82
2023/07/11 01:53:57;;;;;;;;;;;;;;;18.91;70.12;101510.22;5026607;28;1447;-81
2023/07/11 01:56:23;;;;;;;;;;;;;;;18.86;70.03;101499.34;5027366;28;1271;-81
2023/07/11 01:58:48;;;;;;;;;;;;;;;18.81;70.23;101504.31;5027253;28;1178;-81
2023/07/11 02:01:13;;;;;;;;;;;;;;;18.76;70.64;101498.72;5027297;28;1252;-80
2023/07/11 02:03:39;;;;;;;;;;;;;;;18.68;71.18;101503.94;5044272;28;1207;-81
2023/07/11 02:06:04;;;;;;;;;;;;;;;18.57;71.01;101492.72;5019128;28;1886;-79
2023/07/11 02:08:29;;;;;;;;;;;;;;;18.56;71.19;101491.06;5029197;28;1269;-81
2023/07/11 02:10:54;;;;;;;;;;;;;;;18.54;71.07;101486.97;5041136;28;1253;-81
2023/07/11 02:13:20;;;;;;;;;;;;;;;18.49;71.18;101479.56;5024102;28;1555;-81
2023/07/11 02:15:45;;;;;;;;;;;;;;;18.41;71.53;101482.19;5046229;28;1402;-81
2023/07/11 02:18:10;;;;;;;;;;;;;;;18.34;71.78;101475.09;5029173;28;1288;-81
2023/07/11 02:20:40;;;;;;;;;;;;;;;18.28;71.92;101481.81;5045009;28;1189;-81
2023/07/11 02:23:05;;;;;;;;;;;;;;;18.24;72.35;101475.25;5055593;28;1326;-80
2023/07/11 02:25:30;;;;;;;;;;;;;;;18.18;72.31;101470.59;5027894;28;1894;-81
2023/07/11 02:27:55;;;;;;;;;;;;;;;18.17;72.58;101468.97;5024105;28;1237;-81
2023/07/11 02:30:20;;;;;;;;;;;;;;;18.12;72.92;101463.38;5030491;28;1371;-80
2023/07/11 02:32:46;;;;;;;;;;;;;;;18.10;72.90;101458.28;5023385;28;1278;-81
2023/07/11 02:35:11;;;;;;;;;;;;;;;18.14;72.90;101458.78;5025017;28;1351;-81
2023/07/11 02:37:36;;;;;;;;;;;;;;;18.21;72.64;101455.38;5024066;28;1297;-80
2023/07/11 02:40:01;;;;;;;;;;;;;;;18.28;72.66;101460.78;5025083;28;1279;-81
2023/07/11 02:42:27;;;;;;;;;;;;;;;18.31;72.41;101445.56;5025529;28;1350;-82
2023/07/11 02:44:52;;;;;;;;;;;;;;;18.37;72.24;101438.84;5027244;28;1329;-82
2023/07/11 02:47:17;;;;;;;;;;;;;;;18.40;71.95;101438.50;5027401;28;1906;-81
2023/07/11 02:49:42;;;;;;;;;;;;;;;18.41;72.04;101437.53;5023203;28;1257;-81
2023/07/11 02:52:09;;;;;;;;;;;;;;;18.43;71.77;101435.56;5022146;28;1308;-82
2023/07/11 02:54:36;;;;;;;;;;;;;;;18.43;71.71;101432.94;5025768;28;1339;-81
2023/07/11 02:57:01;;;;;;;;;;;;;;;18.43;71.38;101426.88;5026617;28;1510;-81
2023/07/11 02:59:27;;;;;;;;;;;;;;;18.38;71.74;101423.91;5027826;28;1187;-82
2023/07/11 03:01:52;;;;;;;;;;;;;;;18.36;71.45;101425.88;5020292;28;1247;-82
2023/07/11 03:04:17;;;;;;;;;;;;;;;18.34;71.40;101412.88;5028633;28;1386;-81
2023/07/11 03:06:42;;;;;;;;;;;;;;;18.32;71.39;101420.09;5021264;28;1957;-81
2023/07/11 03:09:07;;;;;;;;;;;;;;;18.30;71.43;101412.41;5025010;28;1708;-80
2023/07/11 03:11:33;;;;;;;;;;;;;;;18.27;71.57;101406.63;5025306;28;1288;-80
2023/07/11 03:13:58;;;;;;;;;;;;;;;18.25;71.69;101403.38;5027569;28;1303;-81
2023/07/11 03:16:24;;;;;;;;;;;;;;;18.23;71.88;101390.38;5023376;28;1081;-80
2023/07/11 03:18:49;;;;;;;;;;;;;;;18.22;71.71;101401.03;5023686;28;1235;-80
2023/07/11 03:21:14;;;;;;;;;;;;;;;18.19;71.79;101389.06;5030562;28;1167;-81
2023/07/11 03:23:39;;;;;;;;;;;;;;;18.18;71.73;101387.44;5019791;28;1331;-81
2023/07/11 03:26:04;;;;;;;;;;;;;;;18.17;71.46;101384.94;5025234;28;1980;-81
2023/07/11 03:28:30;;;;;;;;;;;;;;;18.17;71.61;101384.94;5021623;28;1076;-81
2023/07/11 03:30:55;;;;;;;;;;;;;;;18.13;71.84;101381.84;5026600;28;1418;-82
2023/07/11 03:33:20;;;;;;;;;;;;;;;18.12;71.81;101381.97;5026366;28;1070;-80
2023/07/11 03:35:51;;;;;;;;;;;;;;;18.08;71.95;101386.75;5019327;28;1219;-81
2023/07/11 03:38:17;;;;;;;;;;;;;;;18.07;71.97;101385.09;5020866;28;1111;-81
2023/07/11 03:40:43;;;;;;;;;;;;;;;18.02;71.95;101382.97;5026206;28;1308;-80
2023/07/11 03:43:08;;;;;;;;;;;;;;;17.95;72.43;101379.34;5026369;28;1554;-82
2023/07/11 03:45:33;;;;;;;;;;;;;;;17.93;72.40;101378.66;5027696;28;1956;-81
2023/07/11 03:47:58;;;;;;;;;;;;;;;17.90;72.63;101384.25;5022197;28;1262;-81
2023/07/11 03:50:24;;;;;;;;;;;;;;;17.89;72.77;101379.13;5025651;28;1305;-81
2023/07/11 03:52:49;;;;;;;;;;;;;;;17.89;72.68;101376.50;5019786;28;1602;-81
2023/07/11 03:55:14;;;;;;;;;;;;;;;17.88;72.44;101375.69;5027558;28;1304;-81
2023/07/11 03:57:39;;;;;;;;;;;;;;;17.85;72.88;101365.53;5025315;28;1317;-80
2023/07/11 04:00:05;;;;;;;;;;;;;;;17.84;72.88;101369.13;5040677;28;1271;-81
2023/07/11 04:02:30;;;;;;;;;;;;;;;17.81;72.74;101366.81;5024614;28;1423;-81
2023/07/11 04:04:55;;;;;;;;;;;;;;;17.79;72.65;101366.16;5020609;28;1447;-81
2023/07/11 04:07:20;;;;;;;;;;;;;;;17.78;72.82;101360.09;5021969;28;1893;-80
2023/07/11 04:09:46;;;;;;;;;;;;;;;17.78;73.03;101359.28;5026365;28;1252;-81
2023/07/11 04:12:12;;;;;;;;;;;;;;;17.77;73.05;101358.44;5018275;28;1225;-81
2023/07/11 04:14:37;;;;;;;;;;;;;;;17.77;73.07;101368.09;5021454;28;1291;-80
2023/07/11 04:17:02;;;;;;;;;;;;;;;17.74;73.22;101358.75;5035389;28;1511;-81
2023/07/11 04:19:27;;;;;;;;;;;;;;;17.72;73.20;101359.88;5016283;28;1287;-80
2023/07/11 04:21:53;;;;;;;;;;;;;;;17.72;73.24;101354.63;5014530;28;1484;-81
2023/07/11 04:24:18;;;;;;;;;;;;;;;17.70;73.24;101348.69;5034875;28;1198;-81
2023/07/11 04:26:43;;;;;;;;;;;;;;;17.69;73.56;101354.94;5023970;28;1870;-80
2023/07/11 04:29:08;;;;;;;;;;;;;;;17.68;73.50;101353.31;5034776;28;1294;-81
2023/07/11 04:31:34;;;;;;;;;;;;;;;17.68;73.47;101348.88;5022320;28;1301;-80
2023/07/11 04:33:59;;;;;;;;;;;;;;;17.67;73.76;101336.75;5023271;28;1233;-81
2023/07/11 04:36:24;;;;;;;;;;;;;;;17.68;73.94;101343.63;5024862;28;1193;-81
2023/07/11 04:38:50;;;;;;;;;;;;;;;17.68;73.66;101337.56;5040535;28;1293;-81
2023/07/11 04:41:15;;;;;;;;;;;;;;;17.67;73.84;101336.75;5021589;28;1701;-81
2023/07/11 04:43:40;;;;;;;;;;;;;;;17.69;74.21;101331.31;5021811;28;1201;-81
2023/07/11 04:46:05;;;;;;;;;;;;;;;17.68;74.04;101332.31;5025264;28;1893;-79
2023/07/11 04:48:37;;;;;;;;;;;;;;;17.70;74.24;101328.53;5024182;28;1243;-79
2023/07/11 04:51:03;;;;;;;;;;;;;;;17.76;74.18;101330.56;5022767;28;1647;-79
2023/07/11 04:53:29;;;;;;;;;;;;;;;17.80;74.21;101325.81;5024356;28;1649;-79
2023/07/11 04:55:58;;;;;;;;;;;;;;;17.82;74.38;101323.84;5021767;28;1631;-79
2023/07/11 04:58:24;;;;;;;;;;;;;;;17.83;74.37;101322.84;5024350;28;1486;-78
2023/07/11 05:00:49;;;;;;;;;;;;;;;17.87;74.51;101316.31;5028477;28;1315;-79
2023/07/11 05:03:14;;;;;;;;;;;;;;;17.90;74.45;101315.19;5022807;28;1421;-79
2023/07/11 05:05:39;;;;;;;;;;;;;;;17.92;74.73;101314.03;5020456;28;1902;-79
2023/07/11 05:08:05;;;;;;;;;;;;;;;17.93;74.34;101315.66;5014815;28;1271;-79
2023/07/11 05:10:30;;;;;;;;;;;;;;;17.96;74.74;101304.88;5035850;28;1302;-79
2023/07/11 05:12:55;;;;;;;;;;;;;;;18.00;75.20;101310.59;5039380;28;1385;-79
2023/07/11 05:15:21;;;;;;;;;;;;;;;18.04;75.19;101307.47;5037107;28;1191;-79
2023/07/11 05:17:46;;;;;;;;;;;;;;;18.10;75.42;101305.19;5026173;28;1097;-80
2023/07/11 05:20:11;;;;;;;;;;;;;;;18.14;75.14;101301.28;5040693;28;1301;-79
2023/07/11 05:22:37;;;;;;;;;;;;;;;18.19;75.67;101296.34;5022967;28;1071;-79
2023/07/11 05:25:03;;;;;;;;;;;;;;;18.24;74.74;101291.44;5023751;28;1325;-79
2023/07/11 05:27:28;;;;;;;;;;;;;;;18.28;74.60;101287.47;5026907;28;1969;-80
2023/07/11 05:29:53;;;;;;;;;;;;;;;18.34;74.73;101294.69;5042568;28;1499;-80
2023/07/11 05:32:19;;;;;;;;;;;;;;;18.40;74.70;101278.28;5023939;28;1584;-80
2023/07/11 05:34:44;;;;;;;;;;;;;;;18.49;74.55;101276.50;5026208;28;1196;-80
2023/07/11 05:37:09;;;;;;;;;;;;;;;18.56;74.39;101275.66;5042003;28;1358;-80
2023/07/11 05:39:35;;;;;;;;;;;;;;;18.65;74.12;101278.28;5021188;28;1208;-80
2023/07/11 05:42:00;;;;;;;;;;;;;;;18.75;74.08;101273.66;5020941;28;1259;-79
2023/07/11 05:44:26;;;;;;;;;;;;;;;18.83;73.73;101268.41;5032237;28;1581;-79
2023/07/11 05:46:53;;;;;;;;;;;;;;;18.94;73.45;101273.31;5025339;28;1976;-79
2023/07/11 05:49:19;;;;;;;;;;;;;;;19.03;73.15;101261.75;5029624;28;1497;-80
2023/07/11 05:51:44;;;;;;;;;;;;;;;19.12;72.73;101259.94;5028514;28;1153;-79
2023/07/11 05:54:09;;;;;;;;;;;;;;;19.22;72.34;101265.00;5037538;28;1438;-79
2023/07/11 05:56:35;;;;;;;;;;;;;;;19.33;72.03;101260.19;5030357;28;1230;-79
2023/07/11 05:59:00;;;;;;;;;;;;;;;19.43;71.79;101262.56;5041702;28;1443;-79
2023/07/11 06:01:27;;;;;;;;;;;;;;;19.53;71.50;101263.19;5027194;28;1221;-78
2023/07/11 06:04:02;;;;;;;;;;;;;;;19.61;71.25;101254.44;5026955;28;1343;-79
2023/07/11 06:06:43;;;;;;;;;;;;;;;19.71;70.86;101249.78;5019192;28;1886;-79
2023/07/11 06:09:13;;;;;;;;;;;;;;;19.80;70.58;101250.56;5019757;28;1310;-79
2023/07/11 06:11:38;;;;;;;;;;;;;;;19.92;70.51;101250.97;5021042;28;1053;-79
2023/07/11 06:14:04;;;;;;;;;;;;;;;20.02;70.26;101247.13;5045718;28;1335;-79
2023/07/11 06:16:29;;;;;;;;;;;;;;;20.13;69.77;101244.06;5039017;28;1610;-80
2023/07/11 06:19:17;;;;;;;;;;;;;;;20.24;69.24;101245.44;5027923;28;1276;-82
2023/07/11 06:21:43;;;;;;;;;;;;;;;20.36;68.72;101243.22;5028532;28;1270;-81
2023/07/11 06:24:09;;;;;;;;;;;;;;;20.46;68.37;101245.59;5023993;28;1288;-80
2023/07/11 06:26:34;;;;;;;;;;;;;;;20.56;68.25;101243.53;5021042;28;1895;-80
2023/07/11 06:28:59;;;;;;;;;;;;;;;20.63;67.92;101237.34;5020001;28;1486;-81
2023/07/11 06:31:24;;;;;;;;;;;;;;;20.73;67.59;101241.53;5019959;28;1633;-81
2023/07/11 06:33:50;;;;;;;;;;;;;;;20.80;66.92;101240.63;5022180;28;1259;-80
2023/07/11 06:36:16;;;;;;;;;;;;;;;20.89;66.51;101233.44;5021803;28;1327;-80
2023/07/11 06:38:41;;;;;;;;;;;;;;;20.96;66.30;101229.06;5030698;28;1322;-80
2023/07/11 06:41:06;;;;;;;;;;;;;;;21.06;66.08;101244.63;5023267;28;1196;-80
2023/07/11 06:43:31;;;;;;;;;;;;;;;21.10;65.73;101230.84;5022672;28;1312;-80
2023/07/11 06:45:57;;;;;;;;;;;;;;;21.18;65.93;101238.69;5023290;28;1955;-80
2023/07/11 06:48:24;;;;;;;;;;;;;;;21.30;65.78;101222.41;5021595;28;1397;-79
2023/07/11 06:50:54;;;;;;;;;;;;;;;21.39;65.32;101242.38;5027127;28;1325;-80
2023/07/11 06:53:20;;;;;;;;;;;;;;;21.47;65.18;101237.00;5019920;28;1205;-79
2023/07/11 06:55:46;;;;;;;;;;;;;;;21.56;65.12;101241.16;5021382;28;1302;-80
2023/07/11 06:58:11;;;;;;;;;;;;;;;21.67;64.91;101242.50;5021266;28;1190;-80
2023/07/11 07:00:36;;;;;;;;;;;;;;;21.74;63.98;101238.94;5020614;28;1234;-79
2023/07/11 07:03:02;;;;;;;;;;;;;;;21.83;64.46;101241.44;5020132;28;1327;-80
2023/07/11 07:05:27;;;;;;;;;;;;;;;21.89;63.95;101236.19;5013046;28;1252;-80
2023/07/11 07:07:52;;;;;;;;;;;;;;;21.99;64.28;101241.19;5018854;28;1977;-80
2023/07/11 07:10:18;;;;;;;;;;;;;;;22.07;64.27;101233.09;5022198;28;1193;-80
2023/07/11 07:12:43;;;;;;;;;;;;;;;22.20;63.79;101243.84;5017810;28;1256;-80
2023/07/11 07:15:08;;;;;;;;;;;;;;;22.32;63.27;101238.84;5018807;28;1256;-80
2023/07/11 07:17:33;;;;;;;;;;;;;;;22.43;62.41;101242.78;5014515;28;1278;-79
2023/07/11 07:19:59;;;;;;;;;;;;;;;22.53;62.84;101237.94;5025097;28;978;-80
2023/07/11 07:22:24;;;;;;;;;;;;;;;22.65;62.01;101236.41;5023354;28;1263;-81
2023/07/11 07:24:49;;;;;;;;;;;;;;;22.76;61.28;101235.03;5022545;28;1088;-86
2023/07/11 07:27:16;;;;;;;;;;;;;;;22.88;61.62;101230.03;5026121;28;1957;-81
2023/07/11 07:29:44;;;;;;;;;;;;;;;22.94;60.60;101226.59;5040671;28;1199;-81
2023/07/11 07:32:10;;;;;;;;;;;;;;;23.02;60.60;101231.75;5025982;28;1220;-79
2023/07/11 07:34:35;;;;;;;;;;;;;;;23.12;60.45;101229.56;5022282;28;1308;-80
2023/07/11 07:37:00;;;;;;;;;;;;;;;23.22;59.16;101227.31;5025729;28;1585;-79
2023/07/11 07:39:25;;;;;;;;;;;;;;;23.35;59.64;101225.75;5029191;28;1209;-80
2023/07/11 07:41:50;;;;;;;;;;;;;;;23.41;59.92;101211.72;5027312;28;1209;-80
2023/07/11 07:44:16;;;;;;;;;;;;;;;23.55;59.06;101216.03;5026904;28;1205;-82
2023/07/11 07:46:41;;;;;;;;;;;;;;;23.50;58.82;101202.56;5024709;28;1895;-80
2023/07/11 07:49:06;;;;;;;;;;;;;;;23.64;57.18;101209.56;5027557;28;1259;-81
2023/07/11 07:51:31;;;;;;;;;;;;;;;23.73;56.42;101208.31;5024954;28;1269;-80
2023/07/11 07:53:56;;;;;;;;;;;;;;;23.82;56.76;101206.31;5023861;28;1212;-80
2023/07/11 07:56:23;;;;;;;;;;;;;;;23.92;56.43;101205.91;5021616;28;1290;-80
2023/07/11 07:58:49;;;;;;;;;;;;;;;24.00;54.42;101198.56;5022749;28;1220;-81
2023/07/11 08:01:15;;;;;;;;;;;;;;;24.08;56.12;101203.63;5021773;28;1233;-81
2023/07/11 08:03:41;;;;;;;;;;;;;;;24.19;56.56;101202.22;5022654;28;1403;-80
2023/07/11 08:06:08;;;;;;;;;;;;;;;24.30;55.36;101203.41;5016084;28;1957;-80
2023/07/11 08:08:43;;;;;;;;;;;;;;;24.43;54.68;101207.91;5023417;28;1384;-80
2023/07/11 08:11:08;;;;;;;;;;;;;;;24.54;55.39;101199.31;5025680;28;1301;-80
2023/07/11 08:13:36;;;;;;;;;;;;;;;24.67;55.24;101198.50;5040745;28;1400;-80
2023/07/11 08:16:02;;;;;;;;;;;;;;;24.80;55.38;101204.56;5022765;28;1505;-80
2023/07/11 08:18:28;;;;;;;;;;;;;;;24.87;55.36;101205.34;5024042;28;1319;-79
2023/07/11 08:20:54;;;;;;;;;;;;;;;24.90;54.83;101199.63;5035522;28;1208;-79
2023/07/11 08:23:19;;;;;;;;;;;;;;;24.95;54.75;101195.53;5022945;28;1352;-80
2023/07/11 08:25:44;;;;;;;;;;;;;;;25.04;54.17;101199.56;5022429;28;1973;-80
2023/07/11 08:28:09;;;;;;;;;;;;;;;25.13;53.40;101193.03;5018709;28;1312;-80
2023/07/11 08:30:35;;;;;;;;;;;;;;;25.29;54.23;101203.16;5024135;28;1253;-80
2023/07/11 08:33:01;;;;;;;;;;;;;;;25.45;53.08;101201.00;5037285;28;1571;-80
2023/07/11 08:35:26;;;;;;;;;;;;;;;25.55;53.06;101198.69;5016498;28;1208;-80
2023/07/11 08:37:51;;;;;;;;;;;;;;;25.57;51.59;101204.59;5020919;28;1318;-79
2023/07/11 08:40:18;;;;;;;;;;;;;;;25.60;52.73;101198.84;5020148;28;1342;-80
2023/07/11 08:42:44;;;;;;;;;;;;;;;25.71;52.37;101192.84;5019575;28;1462;-80
2023/07/11 08:45:18;;;;;;;;;;;;;;;25.81;51.49;101190.56;5016751;28;1186;-81
2023/07/11 08:47:47;;;;;;;;;;;;;;;25.90;51.77;101189.22;5019121;28;1909;-80
2023/07/11 08:50:13;;;;;;;;;;;;;;;25.99;51.37;101188.97;5024378;28;1072;-82
2023/07/11 08:52:40;;;;;;;;;;;;;;;26.08;51.79;101180.47;5037707;28;1271;-81
2023/07/11 08:55:11;;;;;;;;;;;;;;;26.14;52.14;101189.44;5037737;28;1319;-82
2023/07/11 08:57:38;;;;;;;;;;;;;;;26.21;51.06;101174.25;5018566;28;1431;-82
2023/07/11 09:00:14;;;;;;;;;;;;;;;26.20;51.93;101178.72;5018754;28;1307;-82
2023/07/11 09:03:03;;;;;;;;;;;;;;;26.25;51.68;101179.91;5018211;28;1177;-82
2023/07/11 09:05:46;;;;;;;;;;;;;;;26.32;51.27;101173.50;5015002;28;1189;-83
2023/07/11 09:08:14;;;;;;;;;;;;;;;26.29;51.29;101176.59;5034364;28;1305;-82
2023/07/11 09:10:52;;;;;;;;;;;;;;;26.30;51.16;101175.56;5016160;28;1337;-82
2023/07/11 09:13:20;;;;;;;;;;;;;;;26.33;50.89;101180.47;5018990;28;1392;-82
2023/07/11 09:16:00;;;;;;;;;;;;;;;26.34;51.31;101179.41;5041444;28;1330;-82
2023/07/11 09:18:38;;;;;;;;;;;;;;;26.40;50.59;101177.72;5024484;28;1193;-83
2023/07/11 09:21:03;;;;;;;;;;;;;;;26.40;51.25;101180.38;5021114;28;1092;-82
2023/07/11 09:23:35;;;;;;;;;;;;;;;26.39;50.52;101176.91;5024853;28;1377;-82
2023/07/11 09:26:02;;;;;;;;;;;;;;;26.35;50.61;101181.03;5020259;28;1957;-82
2023/07/11 09:28:29;;;;;;;;;;;;;;;26.29;51.01;101171.28;5020689;28;1388;-83
2023/07/11 09:31:00;;;;;;;;;;;;;;;26.37;51.12;101163.00;5037792;28;1306;-81
2023/07/11 09:33:28;;;;;;;;;;;;;;;26.51;50.92;101169.03;5024600;28;1303;-85
2023/07/11 09:35:54;;;;;;;;;;;;;;;26.68;50.27;101153.28;5014421;28;2080;-82
2023/07/11 09:38:38;;;;;;;;;;;;;;;26.81;50.66;101161.09;5038963;28;1278;-82
2023/07/11 09:41:08;;;;;;;;;;;;;;;26.81;50.12;101163.75;5034350;28;1257;-83
2023/07/11 09:43:33;;;;;;;;;;;;;;;26.82;49.84;101151.25;5024380;28;1242;-80
2023/07/11 09:45:59;;;;;;;;;;;;;;;26.77;49.69;101157.25;5023553;28;1963;-83
2023/07/11 09:48:32;;;;;;;;;;;;;;;26.71;48.59;101152.81;5024946;28;1502;-83
2023/07/11 09:51:00;;;;;;;;;;;;;;;26.77;49.47;101143.13;5017171;28;2177;-81
2023/07/11 09:53:26;;;;;;;;;;;;;;;26.87;49.75;101146.09;5016648;28;1204;-80
2023/07/11 09:55:57;;;;;;;;;;;;;;;26.95;49.63;101153.72;5021348;28;1335;-80
2023/07/11 09:58:22;;;;;;;;;;;;;;;26.93;47.40;101145.97;5025482;28;1193;-81
2023/07/11 10:00:49;;;;;;;;;;;;;;;26.91;49.09;101148.06;5022596;28;1240;-81
2023/07/11 10:03:15;;;;;;;;;;;;;;;26.90;48.69;101146.44;5025541;28;1236;-80
2023/07/11 10:05:43;;;;;;;;;;;;;;;26.92;48.55;101148.88;5023688;28;2058;-80
2023/07/11 10:08:14;;;;;;;;;;;;;;;27.00;49.01;101152.03;5019733;28;1923;-80
2023/07/11 10:10:47;;;;;;;;;;;;;;;27.12;48.39;101149.44;5035131;28;1196;-79
2023/07/11 10:13:14;;;;;;;;;;;;;;;27.10;48.56;101140.06;5025550;28;1241;-80
2023/07/11 10:15:39;;;;;;;;;;;;;;;27.14;48.53;101135.91;5047436;28;1256;-80
2023/07/11 10:18:04;;;;;;;;;;;;;;;27.32;49.15;101135.03;5025871;28;1314;-80
2023/07/11 10:20:31;;;;;;;;;;;;;;;27.43;47.79;101135.06;5021301;28;1417;-81
2023/07/11 10:23:05;;;;;;;;;;;;;;;27.44;47.68;101126.00;5026075;28;1319;-81
2023/07/11 10:25:31;;;;;;;;;;;;;;;27.41;47.78;101126.50;5022629;28;1114;-81
2023/07/11 10:27:59;;;;;;;;;;;;;;;27.47;47.65;101125.56;5028956;28;1985;-81
2023/07/11 10:30:27;;;;;;;;;;;;;;;27.55;47.65;101123.59;5029089;28;1024;-80
2023/07/11 10:32:56;;;;;;;;;;;;;;;27.63;47.71;101126.72;5024193;28;1159;-80
2023/07/11 10:35:22;;;;;;;;;;;;;;;27.79;46.47;101127.91;5031046;28;1303;-80
2023/07/11 10:37:52;;;;;;;;;;;;;;;27.94;46.75;101122.13;5027721;28;1129;-80
2023/07/11 10:40:28;;;;;;;;;;;;;;;28.07;46.61;101118.41;5027415;28;1019;-80
2023/07/11 10:43:03;;;;;;;;;;;;;;;28.13;46.15;101117.47;5018999;28;1363;-79
2023/07/11 10:45:30;;;;;;;;;;;;;;;28.16;46.16;101116.97;5020393;28;1501;-79
2023/07/11 10:48:00;;;;;;;;;;;;;;;28.10;45.41;101112.59;5022676;28;1964;-80
2023/07/11 10:50:25;;;;;;;;;;;;;;;28.15;45.91;101110.03;5039564;28;1275;-80
2023/07/11 10:52:53;;;;;;;;;;;;;;;28.20;46.08;101107.47;5021207;28;1059;-80
2023/07/11 10:55:22;;;;;;;;;;;;;;;28.24;45.84;101103.31;5022936;28;1234;-81
2023/07/11 10:57:51;;;;;;;;;;;;;;;28.22;45.22;101097.41;5017584;28;2379;-80
2023/07/11 11:00:22;;;;;;;;;;;;;;;28.15;45.35;101105.50;5018185;28;1005;-81
2023/07/11 11:02:50;;;;;;;;;;;;;;;28.10;46.08;101096.59;5023151;28;1339;-81
2023/07/11 11:05:21;;;;;;;;;;;;;;;28.14;45.03;101093.22;5038983;28;1314;-80
2023/07/11 11:07:54;;;;;;;;;;;;;;;28.25;45.99;101096.91;5018539;28;1910;-81
2023/07/11 11:10:19;;;;;;;;;;;;;;;28.37;46.46;101095.06;5022512;28;1129;-81
2023/07/11 11:12:52;;;;;;;;;;;;;;;28.47;45.28;101089.91;5020064;28;1293;-82
2023/07/11 11:15:36;;;;;;;;;;;;;;;28.53;45.74;101091.63;5024011;28;1439;-82
2023/07/11 11:18:07;;;;;;;;;;;;;;;28.65;46.11;101093.44;5039684;28;1531;-81
2023/07/11 11:20:36;;;;;;;;;;;;;;;28.73;45.00;101079.72;5031201;28;1317;-83
2023/07/11 11:23:21;;;;;;;;;;;;;;;28.72;44.42;101078.09;5035114;28;1272;-83
2023/07/11 11:25:55;;;;;;;;;;;;;;;28.83;44.75;101075.38;5040097;28;1279;-82
2023/07/11 11:28:21;;;;;;;;;;;;;;;28.87;44.54;101074.91;5018263;28;1149;-83
2023/07/11 11:30:53;;;;;;;;;;;;;;;28.91;45.38;101076.03;5036683;28;1475;-82
2023/07/11 11:33:21;;;;;;;;;;;;;;;28.86;45.15;101079.44;5040563;28;1482;-83
2023/07/11 11:35:59;;;;;;;;;;;;;;;28.79;44.92;101076.13;5020828;28;1253;-83
2023/07/11 11:38:39;;;;;;;;;;;;;;;28.71;43.62;101074.63;5015765;28;1417;-85
2023/07/11 11:41:10;;;;;;;;;;;;;;;28.67;43.87;101083.34;5036094;28;1187;-82
2023/07/11 11:43:36;;;;;;;;;;;;;;;28.67;44.90;101076.13;5019960;28;1408;-82
2023/07/11 11:46:04;;;;;;;;;;;;;;;28.75;44.96;101073.09;5016241;28;1890;-83
2023/07/11 11:48:30;;;;;;;;;;;;;;;28.82;44.60;101070.28;5014998;28;1454;-84
2023/07/11 11:50:56;;;;;;;;;;;;;;;28.78;45.11;101066.47;5015369;28;1195;-83
2023/07/11 11:53:24;;;;;;;;;;;;;;;28.76;45.32;101057.88;5020782;28;1311;-83
2023/07/11 11:55:57;;;;;;;;;;;;;;;28.75;45.35;101066.94;5019600;28;1256;-82
2023/07/11 11:58:24;;;;;;;;;;;;;;;28.75;44.51;101058.94;5033827;28;1243;-83
2023/07/11 12:00:54;;;;;;;;;;;;;;;28.75;45.04;101064.28;5021869;28;1487;-81
2023/07/11 12:03:42;;;;;;;;;;;;;;;28.71;44.87;101057.78;5019301;28;1185;-83
2023/07/11 12:06:26;;;;;;;;;;;;;;;28.66;44.92;101063.03;5025478;28;1894;-84
2023/07/11 12:09:13;;;;;;;;;;;;;;;28.67;44.91;101056.66;5023895;28;1162;-82
2023/07/11 12:11:43;;;;;;;;;;;;;;;28.69;44.95;101051.91;5019142;28;1107;-83
2023/07/11 12:14:28;;;;;;;;;;;;;;;28.69;44.73;101057.25;5035814;28;2255;-82
2023/07/11 12:16:53;;;;;;;;;;;;;;;28.71;44.72;101055.13;5012991;28;1288;-82
2023/07/11 12:19:26;;;;;;;;;;;;;;;28.64;44.64;101049.94;5019257;28;942;-82
2023/07/11 12:21:56;;;;;;;;;;;;;;;28.57;44.53;101039.41;5026326;28;1253;-82
2023/07/11 12:24:38;;;;;;;;;;;;;;;28.62;44.96;101048.53;5023758;28;1267;-82
2023/07/11 12:27:18;;;;;;;;;;;;;;;28.65;44.93;101053.41;5043114;28;1918;-81
2023/07/11 12:29:47;;;;;;;;;;;;;;;28.66;44.80;101041.69;5034177;28;1266;-81
2023/07/11 12:32:30;;;;;;;;;;;;;;;28.70;45.09;101040.16;5016157;28;1287;-81
2023/07/11 12:34:56;;;;;;;;;;;;;;;28.80;44.90;101037.69;5031693;28;1277;-80
2023/07/11 12:37:24;;;;;;;;;;;;;;;28.90;44.40;101032.50;5019555;28;964;-84
2023/07/11 12:39:59;;;;;;;;;;;;;;;28.89;43.92;101033.53;5025445;28;1471;-83
2023/07/11 12:42:27;;;;;;;;;;;;;;;29.02;43.99;101035.94;5033648;28;1338;-85
2023/07/11 12:44:53;;;;;;;;;;;;;;;28.98;45.36;101029.47;5027418;28;1271;-84
2023/07/11 12:47:19;;;;;;;;;;;;;;;29.03;44.80;101020.72;5018631;28;1870;-82
2023/07/11 12:49:47;;;;;;;;;;;;;;;29.15;44.18;101017.97;5021250;28;1114;-84